createdAt,value
2022-09-15T00:00:12.733Z,98780.78
2022-09-15T00:03:00.674Z,98773.66
2022-09-15T00:05:53.278Z,98778.22
2022-09-15T00:08:41.355Z,98764.19
2022-09-15T00:11:31.431Z,98760.97
2022-09-15T00:14:20.901Z,98759.28
2022-09-15T00:17:08.900Z,98755.84
2022-09-15T00:19:58.359Z,98748.50
2022-09-15T00:22:46.305Z,98748.69
2022-09-15T00:25:34.233Z,98743.78
2022-09-15T00:28:23.758Z,98747.47
2022-09-15T00:31:15.478Z,98752.78
2022-09-15T00:34:04.004Z,98749.56
2022-09-15T00:36:51.932Z,98752.78
2022-09-15T00:39:39.872Z,98746.56
2022-09-15T00:42:27.759Z,98742.44
2022-09-15T00:45:18.189Z,98736.88
2022-09-15T00:48:11.084Z,98732.88
2022-09-15T00:51:00.937Z,98738.44
2022-09-15T00:53:50.281Z,98731.50
2022-09-15T00:56:41.709Z,98725.75
2022-09-15T00:59:32.594Z,98728.09
2022-09-15T01:02:23.864Z,98733.97
2022-09-15T01:05:16.463Z,98691.63
2022-09-15T01:08:08.021Z,98724.06
2022-09-15T01:10:56.840Z,98728.09
2022-09-15T01:13:45.446Z,98725.81
2022-09-15T01:16:48.588Z,98717.63
2022-09-15T01:20:01.750Z,98729.88
2022-09-15T01:23:06.687Z,98732.53
2022-09-15T01:26:18.845Z,98737.00
2022-09-15T01:29:24.567Z,98728.38
2022-09-15T01:32:39.001Z,98725.28
2022-09-15T01:35:34.851Z,98719.00
2022-09-15T01:38:31.340Z,98720.22
2022-09-15T01:41:25.305Z,98719.47
2022-09-15T01:44:16.512Z,98720.25
2022-09-15T01:47:08.962Z,98711.88
2022-09-15T01:50:03.728Z,98714.22
2022-09-15T01:52:54.640Z,98703.41
2022-09-15T01:55:47.614Z,98710.50
2022-09-15T01:58:37.903Z,98714.72
2022-09-15T02:01:32.319Z,98708.50
2022-09-15T02:04:29.597Z,98707.22
2022-09-15T02:07:27.224Z,98691.03
2022-09-15T02:10:22.960Z,98695.22
2022-09-15T02:13:16.888Z,98696.09
2022-09-15T02:16:10.532Z,98700.91
2022-09-15T02:19:10.120Z,98695.00
2022-09-15T02:22:06.039Z,98693.59
2022-09-15T02:24:58.846Z,98691.28
2022-09-15T02:27:50.342Z,98684.50
2022-09-15T02:30:41.919Z,98691.28
2022-09-15T02:33:34.550Z,98694.53
2022-09-15T02:36:22.929Z,98694.97
2022-09-15T02:39:15.757Z,98691.44
2022-09-15T02:42:04.606Z,98681.94
2022-09-15T02:44:52.925Z,98687.53
2022-09-15T02:47:40.840Z,98689.88
2022-09-15T02:50:28.818Z,98691.13
2022-09-15T02:53:16.738Z,98687.22
2022-09-15T02:56:07.013Z,98667.69
2022-09-15T02:58:54.899Z,98689.34
2022-09-15T03:01:42.928Z,98701.38
2022-09-15T03:04:30.842Z,98679.56
2022-09-15T03:07:19.697Z,98702.31
2022-09-15T03:10:09.740Z,98693.78
2022-09-15T03:12:59.113Z,98699.34
2022-09-15T03:15:47.189Z,98690.88
2022-09-15T03:18:35.233Z,98709.53
2022-09-15T03:21:23.804Z,98703.53
2022-09-15T03:24:11.815Z,98708.00
2022-09-15T03:26:59.736Z,98702.31
2022-09-15T03:29:49.126Z,98702.47
2022-09-15T03:32:37.179Z,98694.75
2022-09-15T03:35:25.185Z,98704.16
2022-09-15T03:38:13.132Z,98700.75
2022-09-15T03:41:02.821Z,98703.97
2022-09-15T03:43:50.768Z,98695.78
2022-09-15T03:46:40.049Z,98699.97
2022-09-15T03:49:27.942Z,98713.44
2022-09-15T03:52:15.852Z,98713.09
2022-09-15T03:55:03.821Z,98650.84
2022-09-15T03:57:52.589Z,98709.09
2022-09-15T04:00:41.253Z,98716.06
2022-09-15T04:03:31.721Z,98708.72
2022-09-15T04:06:20.238Z,98722.31
2022-09-15T04:09:08.525Z,98717.53
2022-09-15T04:11:56.794Z,98731.91
2022-09-15T04:14:44.894Z,98739.78
2022-09-15T04:17:33.207Z,98745.16
2022-09-15T04:20:22.502Z,98731.75
2022-09-15T04:23:10.432Z,98734.47
2022-09-15T04:25:59.474Z,98737.44
2022-09-15T04:28:47.422Z,98739.44
2022-09-15T04:31:35.463Z,98752.69
2022-09-15T04:34:24.458Z,98745.78
2022-09-15T04:37:13.774Z,98748.94
2022-09-15T04:40:02.309Z,98748.16
2022-09-15T04:42:50.289Z,98750.59
2022-09-15T04:45:38.200Z,98758.25
2022-09-15T04:48:26.575Z,98754.28
2022-09-15T04:51:18.042Z,98773.34
2022-09-15T04:54:07.808Z,98769.81
2022-09-15T04:56:55.751Z,98779.72
2022-09-15T04:59:43.667Z,98771.03
2022-09-15T05:02:31.860Z,98775.81
2022-09-15T05:05:20.311Z,98779.94
2022-09-15T05:08:08.771Z,98775.84
2022-09-15T05:11:01.352Z,98773.53
2022-09-15T05:13:49.688Z,98782.31
2022-09-15T05:16:37.816Z,98782.63
2022-09-15T05:19:25.892Z,98784.31
2022-09-15T05:22:13.829Z,98793.94
2022-09-15T05:25:01.740Z,98794.19
2022-09-15T05:27:51.016Z,98793.09
2022-09-15T05:30:44.244Z,98795.66
2022-09-15T05:33:32.496Z,98800.00
2022-09-15T05:36:23.769Z,98792.88
2022-09-15T05:39:11.685Z,98806.22
2022-09-15T05:41:59.704Z,98806.75
2022-09-15T05:44:48.972Z,98809.88
2022-09-15T05:47:36.984Z,98817.75
2022-09-15T05:50:24.876Z,98817.28
2022-09-15T05:53:12.782Z,98808.97
2022-09-15T05:56:03.007Z,98813.63
2022-09-15T05:58:51.071Z,98811.09
2022-09-15T06:01:40.461Z,98824.06
2022-09-15T06:04:28.507Z,98814.41
2022-09-15T06:07:17.410Z,98827.94
2022-09-15T06:10:06.473Z,98796.09
2022-09-15T06:12:54.984Z,98835.94
2022-09-15T06:15:43.375Z,98839.28
2022-09-15T06:18:33.853Z,98846.84
2022-09-15T06:21:23.401Z,98857.69
2022-09-15T06:24:12.940Z,98863.00
2022-09-15T06:27:00.936Z,98866.44
2022-09-15T06:29:49.310Z,98868.53
2022-09-15T06:32:37.484Z,98870.53
2022-09-15T06:35:26.791Z,98874.59
2022-09-15T06:38:14.754Z,98844.31
2022-09-15T06:41:03.072Z,98899.59
2022-09-15T06:43:51.403Z,98899.19
2022-09-15T06:46:39.706Z,98909.31
2022-09-15T06:49:27.662Z,98907.84
2022-09-15T06:52:16.930Z,98843.03
2022-09-15T06:55:05.530Z,98908.03
2022-09-15T06:57:53.452Z,98919.53
2022-09-15T07:00:41.404Z,98924.88
2022-09-15T07:03:29.467Z,98923.78
2022-09-15T07:06:18.170Z,98918.31
2022-09-15T07:09:07.748Z,98918.16
2022-09-15T07:11:55.627Z,98914.50
2022-09-15T07:14:43.850Z,98930.63
2022-09-15T07:17:31.739Z,98934.69
2022-09-15T07:20:19.623Z,98931.56
2022-09-15T07:23:07.547Z,98877.84
2022-09-15T07:26:06.822Z,98946.00
2022-09-15T07:28:57.260Z,98941.50
2022-09-15T07:31:45.201Z,98941.22
2022-09-15T07:34:33.108Z,98954.91
2022-09-15T07:37:21.060Z,98960.00
2022-09-15T07:40:10.959Z,98967.03
2022-09-15T07:43:00.274Z,98976.47
2022-09-15T07:45:48.191Z,98983.66
2022-09-15T07:48:36.116Z,98977.72
2022-09-15T07:51:24.869Z,98975.81
2022-09-15T07:54:13.057Z,98987.00
2022-09-15T07:57:00.950Z,98985.47
2022-09-15T07:59:50.380Z,98982.09
2022-09-15T08:02:38.286Z,98986.88
2022-09-15T08:05:28.493Z,98983.25
2022-09-15T08:08:16.436Z,98987.16
2022-09-15T08:11:07.843Z,98987.41
2022-09-15T08:13:55.832Z,98993.41
2022-09-15T08:16:45.066Z,98996.31
2022-09-15T08:19:35.186Z,98994.44
2022-09-15T08:22:23.125Z,98998.53
2022-09-15T08:25:11.022Z,99003.31
2022-09-15T08:28:00.078Z,99006.78
2022-09-15T08:30:48.161Z,99004.00
2022-09-15T08:33:39.833Z,99006.00
2022-09-15T08:36:31.304Z,99003.28
2022-09-15T08:39:19.225Z,99014.50
2022-09-15T08:42:07.531Z,99020.38
2022-09-15T08:45:00.651Z,99014.16
2022-09-15T08:47:55.733Z,99016.16
2022-09-15T08:50:50.305Z,99008.28
2022-09-15T08:53:45.349Z,99021.50
2022-09-15T08:56:33.975Z,99026.84
2022-09-15T08:59:22.309Z,99033.72
2022-09-15T09:02:45.257Z,99037.09
2022-09-15T09:05:54.185Z,99028.81
2022-09-15T09:08:57.072Z,99027.25
2022-09-15T09:11:59.764Z,99030.44
2022-09-15T09:15:03.854Z,99033.72
2022-09-15T09:18:14.256Z,99046.13
2022-09-15T09:21:10.435Z,99035.63
2022-09-15T09:24:06.137Z,99036.91
2022-09-15T09:26:56.545Z,99048.19
2022-09-15T09:29:49.397Z,99043.53
2022-09-15T09:32:43.744Z,99048.31
2022-09-15T09:35:37.538Z,99055.69
2022-09-15T09:38:28.215Z,99059.56
2022-09-15T09:41:19.743Z,99054.44
2022-09-15T09:44:13.070Z,99055.13
2022-09-15T09:47:01.877Z,99046.91
2022-09-15T09:49:50.848Z,99048.22
2022-09-15T09:52:40.262Z,99049.56
2022-09-15T09:55:29.222Z,99050.13
2022-09-15T09:58:22.434Z,99048.66
2022-09-15T10:01:11.970Z,99050.81
2022-09-15T10:04:13.999Z,99049.00
2022-09-15T10:07:02.009Z,99064.44
2022-09-15T10:09:56.005Z,99063.41
2022-09-15T10:12:43.943Z,99069.41
2022-09-15T10:15:36.318Z,99069.91
2022-09-15T10:18:29.800Z,99074.38
2022-09-15T10:21:23.404Z,99075.56
2022-09-15T10:24:35.283Z,99079.22
2022-09-15T10:27:31.971Z,99083.78
2022-09-15T10:30:20.642Z,99082.69
2022-09-15T10:33:24.073Z,99058.13
2022-09-15T10:36:15.712Z,99005.44
2022-09-15T10:39:13.076Z,99086.25
2022-09-15T10:42:11.972Z,99088.22
2022-09-15T10:45:16.350Z,99091.81
2022-09-15T10:48:20.798Z,99096.25
2022-09-15T10:51:24.039Z,99102.25
2022-09-15T10:54:34.084Z,99097.72
2022-09-15T10:57:38.550Z,99102.13
2022-09-15T11:00:31.167Z,99099.69
2022-09-15T11:03:38.627Z,99097.44
2022-09-15T11:06:31.131Z,99093.41
2022-09-15T11:09:23.129Z,99091.25
2022-09-15T11:12:28.929Z,99089.28
2022-09-15T11:15:33.553Z,99094.09
2022-09-15T11:18:45.625Z,99093.50
2022-09-15T11:21:40.193Z,99092.97
2022-09-15T11:24:37.572Z,99089.81
2022-09-15T11:27:30.918Z,99093.81
2022-09-15T11:30:21.202Z,99093.34
2022-09-15T11:33:17.578Z,99088.00
2022-09-15T11:36:10.520Z,99097.19
2022-09-15T11:39:06.845Z,99102.28
2022-09-15T11:42:00.983Z,99102.66
2022-09-15T11:44:49.345Z,99099.53
2022-09-15T11:47:43.515Z,99097.84
2022-09-15T11:50:35.154Z,99109.00
2022-09-15T11:53:29.802Z,99109.75
2022-09-15T11:56:25.491Z,99110.66
2022-09-15T11:59:21.841Z,99105.88
2022-09-15T12:02:20.086Z,99110.56
2022-09-15T12:05:15.006Z,99101.06
2022-09-15T12:08:07.825Z,99112.22
2022-09-15T12:11:00.110Z,99110.03
2022-09-15T12:13:50.054Z,99112.50
2022-09-15T12:16:38.156Z,99102.00
2022-09-15T12:19:43.442Z,99109.63
2022-09-15T12:22:41.021Z,99111.66
2022-09-15T12:25:34.592Z,99105.44
2022-09-15T12:28:43.619Z,99112.25
2022-09-15T12:31:35.588Z,99102.78
2022-09-15T12:34:38.390Z,99097.69
2022-09-15T12:37:27.399Z,99112.69
2022-09-15T12:40:35.643Z,99103.31
2022-09-15T12:43:25.569Z,99106.72
2022-09-15T12:46:19.426Z,99113.25
2022-09-15T12:49:18.518Z,99116.59
2022-09-15T12:52:08.340Z,99124.44
2022-09-15T12:55:00.812Z,99122.06
2022-09-15T12:57:57.392Z,99122.66
2022-09-15T13:01:13.924Z,99125.06
2022-09-15T13:04:26.323Z,99121.84
2022-09-15T13:07:32.008Z,99126.50
2022-09-15T13:10:39.407Z,99123.09
2022-09-15T13:13:34.779Z,99124.19
2022-09-15T13:16:30.990Z,99119.41
2022-09-15T13:19:24.483Z,99125.00
2022-09-15T13:22:22.504Z,99131.22
2022-09-15T13:25:17.534Z,99121.88
2022-09-15T13:28:06.230Z,99140.84
2022-09-15T13:31:05.864Z,99136.28
2022-09-15T13:38:20.082Z,99127.38
2022-09-15T13:41:53.416Z,99128.06
2022-09-15T13:45:14.049Z,99114.44
2022-09-15T13:48:40.109Z,99124.03
2022-09-15T13:51:30.935Z,99120.97
2022-09-15T13:54:20.588Z,99117.41
2022-09-15T13:57:09.043Z,99125.13
2022-09-15T13:59:57.027Z,99119.38
2022-09-15T14:05:40.931Z,99110.84
2022-09-15T14:08:33.345Z,99112.53
2022-09-15T14:11:29.269Z,99122.28
2022-09-15T14:14:36.849Z,99119.69
2022-09-15T14:17:26.655Z,99046.50
2022-09-15T14:20:24.198Z,99091.47
2022-09-15T14:23:16.735Z,99129.63
2022-09-15T14:26:05.038Z,99120.19
2022-09-15T14:28:58.437Z,99118.44
2022-09-15T14:31:46.734Z,99115.22
2022-09-15T14:34:37.248Z,99129.31
2022-09-15T14:37:27.540Z,99133.31
2022-09-15T14:40:21.040Z,99129.72
2022-09-15T14:43:24.824Z,99128.38
2022-09-15T14:46:17.417Z,99124.84
2022-09-15T14:49:12.102Z,99126.84
2022-09-15T14:52:02.225Z,99125.84
2022-09-15T14:54:51.631Z,99129.63
2022-09-15T15:00:45.514Z,99119.88
2022-09-15T15:03:40.222Z,99116.91
2022-09-15T15:06:35.671Z,99119.97
2022-09-15T15:09:29.836Z,99122.63
2022-09-15T15:12:25.233Z,99121.88
2022-09-15T15:15:14.730Z,99119.38
2022-09-15T15:18:07.341Z,99115.81
2022-09-15T15:20:56.595Z,99124.50
2022-09-15T15:23:47.089Z,99119.41
2022-09-15T15:26:43.529Z,99125.91
2022-09-15T15:29:43.996Z,99126.47
2022-09-15T15:32:32.377Z,99126.97
2022-09-15T15:35:21.398Z,99113.47
2022-09-15T15:38:16.725Z,99119.22
2022-09-15T15:41:06.778Z,99125.91
2022-09-15T15:43:59.714Z,99124.19
2022-09-15T15:46:50.624Z,99127.78
2022-09-15T15:49:46.245Z,99120.84
2022-09-15T15:52:38.972Z,99135.06
2022-09-15T15:55:37.097Z,99128.06
2022-09-15T15:58:25.247Z,99122.00
2022-09-15T16:01:13.240Z,99125.09
2022-09-15T16:04:01.211Z,99095.56
2022-09-15T16:06:49.292Z,99140.31
2022-09-15T16:09:37.632Z,99130.13
2022-09-15T16:12:29.635Z,99132.72
2022-09-15T16:15:21.965Z,99139.97
2022-09-15T16:18:10.176Z,99134.41
2022-09-15T16:20:58.099Z,99147.53
2022-09-15T16:23:46.570Z,99139.53
2022-09-15T16:26:35.559Z,99146.97
2022-09-15T16:29:29.059Z,99142.34
2022-09-15T16:32:19.691Z,99142.41
2022-09-15T16:35:29.424Z,99142.44
2022-09-15T16:38:19.525Z,99143.78
2022-09-15T16:41:14.226Z,99146.09
2022-09-15T16:44:02.531Z,99142.81
2022-09-15T16:46:51.833Z,99145.41
2022-09-15T16:49:39.800Z,99145.69
2022-09-15T16:52:27.685Z,99150.16
2022-09-15T16:55:23.102Z,99151.72
2022-09-15T16:58:11.118Z,99148.34
2022-09-15T17:00:59.313Z,99146.97
2022-09-15T17:03:49.134Z,99130.25
2022-09-15T17:06:37.069Z,99149.63
2022-09-15T17:09:24.997Z,99152.97
2022-09-15T17:15:01.733Z,99160.63
2022-09-15T17:17:49.909Z,99166.88
2022-09-15T17:20:39.545Z,99161.63
2022-09-15T17:23:28.841Z,99166.63
2022-09-15T17:26:19.917Z,99173.28
2022-09-15T17:29:08.324Z,99161.47
2022-09-15T17:31:56.196Z,99159.13
2022-09-15T17:34:44.099Z,99161.91
2022-09-15T17:37:33.532Z,99172.34
2022-09-15T17:40:22.081Z,99172.09
2022-09-15T17:43:14.960Z,99166.06
2022-09-15T17:46:02.861Z,99171.34
2022-09-15T17:48:50.854Z,99165.31
2022-09-15T17:51:38.738Z,99167.06
2022-09-15T17:54:27.973Z,99165.13
2022-09-15T17:57:15.877Z,99164.91
2022-09-15T18:00:03.976Z,99163.53
2022-09-15T18:02:55.085Z,99157.19
2022-09-15T18:05:43.185Z,99160.94
2022-09-15T18:08:32.697Z,99163.59
2022-09-15T18:11:22.060Z,99164.59
2022-09-15T18:14:10.329Z,99160.94
2022-09-15T18:16:58.253Z,99162.41
2022-09-15T18:19:46.246Z,99154.81
2022-09-15T18:22:34.270Z,99170.59
2022-09-15T18:25:25.410Z,99172.31
2022-09-15T18:28:15.279Z,99174.78
2022-09-15T18:31:03.260Z,99180.03
2022-09-15T18:33:51.201Z,99181.84
2022-09-15T18:36:40.341Z,99188.31
2022-09-15T18:39:29.322Z,99185.97
2022-09-15T18:42:17.243Z,99190.44
2022-09-15T18:45:09.284Z,99183.69
2022-09-15T18:47:57.205Z,99179.00
2022-09-15T18:50:45.812Z,99187.31
2022-09-15T18:53:36.017Z,99193.91
2022-09-15T18:56:24.002Z,99193.13
2022-09-15T18:59:13.701Z,99198.16
2022-09-15T19:02:06.355Z,99161.75
2022-09-15T19:04:54.589Z,99199.25
2022-09-15T19:07:43.329Z,99201.16
2022-09-15T19:10:31.236Z,99202.16
2022-09-15T19:13:19.149Z,99202.66
2022-09-15T19:16:08.429Z,99207.25
2022-09-15T19:18:57.828Z,99206.41
2022-09-15T19:21:45.709Z,99210.38
2022-09-15T19:24:35.255Z,99213.44
2022-09-15T19:27:23.501Z,99217.00
2022-09-15T19:30:12.543Z,99223.31
2022-09-15T19:33:00.476Z,99220.47
2022-09-15T19:35:59.922Z,99228.66
2022-09-15T19:38:53.075Z,99220.88
2022-09-15T19:41:41.467Z,99221.25
2022-09-15T19:44:29.379Z,99221.13
2022-09-15T19:47:17.407Z,99221.81
2022-09-15T19:50:07.917Z,99226.50
2022-09-15T19:52:59.547Z,99230.75
2022-09-15T19:55:50.802Z,99251.78
2022-09-15T19:58:38.737Z,99251.06
2022-09-15T20:01:29.173Z,99257.41
2022-09-15T20:04:18.088Z,99259.59
2022-09-15T20:07:06.001Z,99262.66
2022-09-15T20:09:55.236Z,99258.66
2022-09-15T20:12:43.202Z,99255.91
2022-09-15T20:15:31.102Z,99253.94
2022-09-15T20:18:19.570Z,99248.94
2022-09-15T20:21:08.623Z,99262.66
2022-09-15T20:23:57.354Z,99258.41
2022-09-15T20:26:46.774Z,99253.84
2022-09-15T20:29:35.369Z,99254.56
2022-09-15T20:32:28.163Z,99260.44
2022-09-15T20:35:17.130Z,99263.94
2022-09-15T20:38:05.022Z,99264.72
2022-09-15T20:40:54.906Z,99266.72
2022-09-15T20:43:44.898Z,99261.22
2022-09-15T20:46:33.411Z,99266.34
2022-09-15T20:49:21.371Z,99272.25
2022-09-15T20:52:09.324Z,99261.03
2022-09-15T20:54:57.378Z,99265.00
2022-09-15T20:57:45.321Z,99190.78
2022-09-15T21:00:34.600Z,99266.94
2022-09-15T21:03:23.881Z,99266.13
2022-09-15T21:06:14.444Z,99260.22
2022-09-15T21:09:02.692Z,99268.13
2022-09-15T21:11:53.512Z,99264.22
2022-09-15T21:14:41.672Z,99263.16
2022-09-15T21:17:30.890Z,99268.00
2022-09-15T21:20:18.892Z,99269.13
2022-09-15T21:23:07.217Z,99285.03
2022-09-15T21:26:01.998Z,99280.78
2022-09-15T21:28:50.858Z,99249.28
2022-09-15T21:31:39.250Z,99291.56
2022-09-15T21:34:28.912Z,99299.16
2022-09-15T21:37:16.873Z,99298.44
2022-09-15T21:40:05.258Z,99301.19
2022-09-15T21:42:53.175Z,99311.22
2022-09-15T21:45:41.165Z,99317.53
2022-09-15T21:48:29.111Z,99314.38
2022-09-15T21:51:24.251Z,99305.59
2022-09-15T21:54:13.615Z,99310.00
2022-09-15T21:57:01.621Z,99308.38
2022-09-15T21:59:49.492Z,99316.78
2022-09-15T22:02:37.414Z,99312.94
2022-09-15T22:05:25.750Z,99310.97
2022-09-15T22:08:16.609Z,99311.03
2022-09-15T22:11:05.005Z,99313.88
2022-09-15T22:13:53.123Z,99310.81
2022-09-15T22:16:42.642Z,99318.72
2022-09-15T22:19:30.688Z,99320.34
2022-09-15T22:22:18.634Z,99327.13
2022-09-15T22:25:08.878Z,99320.38
2022-09-15T22:27:56.916Z,99318.41
2022-09-15T22:30:44.815Z,99327.59
2022-09-15T22:33:32.786Z,99320.94
2022-09-15T22:36:26.589Z,99329.28
2022-09-15T22:39:16.728Z,99323.03
2022-09-15T22:42:06.294Z,99321.91
2022-09-15T22:44:54.367Z,99324.63
2022-09-15T22:47:42.288Z,99329.81
2022-09-15T22:50:30.343Z,99314.19
2022-09-15T22:53:18.277Z,99320.00
2022-09-15T22:56:09.075Z,99320.94
2022-09-15T22:58:58.377Z,99319.13
2022-09-15T23:01:46.850Z,99323.78
2022-09-15T23:04:34.820Z,99311.59
2022-09-15T23:07:22.793Z,99318.03
2022-09-15T23:10:10.826Z,99313.44
2022-09-15T23:12:59.141Z,99325.03
2022-09-15T23:15:50.051Z,99310.09
2022-09-15T23:18:38.329Z,99302.31
2022-09-15T23:21:27.946Z,99319.59
2022-09-15T23:24:17.017Z,99323.66
2022-09-15T23:27:05.194Z,99325.56
2022-09-15T23:29:53.117Z,99327.59
2022-09-15T23:32:42.429Z,99326.78
2022-09-15T23:35:30.416Z,99328.03
2022-09-15T23:38:19.572Z,99304.88
2022-09-15T23:41:08.147Z,99329.59
2022-09-15T23:43:56.905Z,99332.75
2022-09-15T23:46:44.934Z,99334.75
2022-09-15T23:49:34.248Z,99331.97
2022-09-15T23:52:22.202Z,99335.94
2022-09-15T23:55:10.492Z,99326.50
2022-09-15T23:57:58.463Z,99329.31
